createdAt,value
2022-08-28T00:00:37.779Z,96995.81
2022-08-28T00:03:05.779Z,97009.75
2022-08-28T00:05:33.265Z,97009.28
2022-08-28T00:08:00.343Z,97009.28
2022-08-28T00:10:28.418Z,97009.41
2022-08-28T00:12:57.488Z,97010.84
2022-08-28T00:15:31.448Z,97009.41
2022-08-28T00:17:58.906Z,97019.06
2022-08-28T00:20:26.789Z,97013.53
2022-08-28T00:22:55.588Z,97019.06
2022-08-28T00:25:25.047Z,97023.25
2022-08-28T00:27:53.060Z,97028.88
2022-08-28T00:30:25.950Z,97011.66
2022-08-28T00:32:54.111Z,97012.47
2022-08-28T00:35:21.830Z,97014.53
2022-08-28T00:37:48.639Z,97011.81
2022-08-28T00:40:18.656Z,97006.91
2022-08-28T00:42:56.172Z,97008.19
2022-08-28T00:45:24.469Z,97006.00
2022-08-28T00:47:51.310Z,96993.63
2022-08-28T00:50:21.330Z,96999.03
2022-08-28T00:52:50.601Z,96998.31
2022-08-28T00:55:20.981Z,97003.63
2022-08-28T00:57:51.612Z,97008.47
2022-08-28T01:00:31.128Z,97001.31
2022-08-28T01:02:58.958Z,97011.03
2022-08-28T01:05:26.550Z,97006.03
2022-08-28T01:07:55.339Z,97012.94
2022-08-28T01:10:23.803Z,97011.47
2022-08-28T01:12:51.441Z,97005.22
2022-08-28T01:15:24.142Z,97000.94
2022-08-28T01:17:54.384Z,97002.84
2022-08-28T01:20:24.828Z,97006.88
2022-08-28T01:22:55.132Z,97005.63
2022-08-28T01:25:24.709Z,96997.94
2022-08-28T01:27:51.716Z,97002.28
2022-08-28T01:30:21.534Z,97000.22
2022-08-28T01:32:53.992Z,96990.63
2022-08-28T01:35:25.746Z,97006.63
2022-08-28T01:37:53.143Z,96990.00
2022-08-28T01:40:32.549Z,96983.63
2022-08-28T01:43:20.058Z,96984.97
2022-08-28T01:45:54.433Z,96986.94
2022-08-28T01:48:23.247Z,97000.22
2022-08-28T01:50:50.586Z,96988.44
2022-08-28T01:53:20.466Z,96986.28
2022-08-28T01:55:53.863Z,96989.72
2022-08-28T01:58:21.965Z,96988.50
2022-08-28T02:00:53.887Z,96984.31
2022-08-28T02:03:23.088Z,96983.63
2022-08-28T02:05:55.302Z,96986.22
2022-08-28T02:08:23.886Z,96991.00
2022-08-28T02:10:52.899Z,96983.25
2022-08-28T02:13:20.589Z,96987.97
2022-08-28T02:15:47.891Z,96987.22
2022-08-28T02:18:15.416Z,96988.63
2022-08-28T02:20:43.133Z,96980.47
2022-08-28T02:23:10.748Z,96983.25
2022-08-28T02:25:37.639Z,96990.13
2022-08-28T02:28:04.729Z,96979.84
2022-08-28T02:30:32.252Z,96975.00
2022-08-28T02:32:59.283Z,96977.78
2022-08-28T02:35:26.620Z,96990.13
2022-08-28T02:37:54.551Z,96992.69
2022-08-28T02:40:23.962Z,96985.56
2022-08-28T02:42:56.544Z,96985.50
2022-08-28T02:45:25.021Z,96986.91
2022-08-28T02:47:54.252Z,96985.50
2022-08-28T02:50:22.131Z,96979.88
2022-08-28T02:52:49.359Z,96983.31
2022-08-28T02:55:18.733Z,96991.59
2022-08-28T02:57:47.287Z,96988.84
2022-08-28T03:00:18.201Z,96981.25
2022-08-28T03:02:46.446Z,96986.13
2022-08-28T03:05:15.784Z,96982.00
2022-08-28T03:07:43.218Z,96975.84
2022-08-28T03:10:10.917Z,96968.25
2022-08-28T03:12:38.399Z,96974.50
2022-08-28T03:15:07.810Z,96984.13
2022-08-28T03:17:37.093Z,96982.09
2022-08-28T03:20:06.752Z,96986.13
2022-08-28T03:22:52.064Z,96980.53
2022-08-28T03:25:19.109Z,96981.31
2022-08-28T03:27:46.127Z,96988.97
2022-08-28T03:30:14.513Z,96982.66
2022-08-28T03:32:41.598Z,96975.63
2022-08-28T03:35:09.189Z,96978.38
2022-08-28T03:37:36.759Z,96973.47
2022-08-28T03:40:06.168Z,96974.72
2022-08-28T03:42:33.553Z,96973.25
2022-08-28T03:45:00.763Z,96978.06
2022-08-28T03:47:30.876Z,96978.63
2022-08-28T03:49:58.453Z,96980.53
2022-08-28T03:52:25.242Z,96975.63
2022-08-28T03:54:53.011Z,96974.91
2022-08-28T03:57:21.745Z,96980.28
2022-08-28T03:59:51.998Z,96977.38
2022-08-28T04:02:20.790Z,96984.97
2022-08-28T04:04:51.561Z,96979.44
2022-08-28T04:07:19.432Z,96987.81
2022-08-28T04:09:47.349Z,96983.06
2022-08-28T04:12:14.667Z,96986.00
2022-08-28T04:14:42.211Z,96986.00
2022-08-28T04:17:10.113Z,96990.16
2022-08-28T04:19:38.233Z,96984.56
2022-08-28T04:22:05.575Z,96992.06
2022-08-28T04:24:32.798Z,96985.13
2022-08-28T04:27:00.044Z,96988.44
2022-08-28T04:29:27.141Z,96993.34
2022-08-28T04:31:55.143Z,96996.03
2022-08-28T04:34:22.213Z,97003.63
2022-08-28T04:36:51.713Z,96996.59
2022-08-28T04:39:19.017Z,97000.78
2022-08-28T04:41:46.216Z,97002.84
2022-08-28T04:44:13.272Z,97000.06
2022-08-28T04:46:40.572Z,97005.69
2022-08-28T04:49:07.804Z,97000.84
2022-08-28T04:51:38.852Z,97010.56
2022-08-28T04:54:10.978Z,97006.53
2022-08-28T04:56:40.150Z,97010.66
2022-08-28T04:59:07.585Z,97020.63
2022-08-28T05:01:34.863Z,97017.91
2022-08-28T05:04:03.251Z,97018.06
2022-08-28T05:06:31.669Z,97021.63
2022-08-28T05:09:01.080Z,97025.19
2022-08-28T05:11:33.292Z,97017.69
2022-08-28T05:14:04.777Z,97022.56
2022-08-28T05:16:33.322Z,97023.22
2022-08-28T05:19:04.032Z,97028.13
2022-08-28T05:21:31.275Z,97023.28
2022-08-28T05:23:59.185Z,97034.53
2022-08-28T05:26:28.359Z,97031.19
2022-08-28T05:28:58.046Z,97028.31
2022-08-28T05:31:26.526Z,97029.72
2022-08-28T05:33:54.195Z,97031.19
2022-08-28T05:36:23.080Z,97029.94
2022-08-28T05:38:56.872Z,97028.69
2022-08-28T05:41:29.430Z,97026.13
2022-08-28T05:43:59.353Z,97026.34
2022-08-28T05:46:28.348Z,97029.34
2022-08-28T05:48:56.260Z,97032.97
2022-08-28T05:51:25.049Z,97024.16
2022-08-28T05:53:52.635Z,97032.00
2022-08-28T05:56:24.462Z,97033.56
2022-08-28T05:58:52.080Z,97028.28
2022-08-28T06:01:21.923Z,97034.13
2022-08-28T06:03:55.369Z,97031.78
2022-08-28T06:06:24.786Z,97034.03
2022-08-28T06:08:59.947Z,97037.91
2022-08-28T06:11:30.322Z,97027.16
2022-08-28T06:14:03.873Z,97032.97
2022-08-28T06:16:32.940Z,97032.34
2022-08-28T06:19:00.879Z,97040.59
2022-08-28T06:21:29.119Z,97045.59
2022-08-28T06:23:56.714Z,97040.56
2022-08-28T06:26:24.150Z,97048.72
2022-08-28T06:28:52.594Z,97057.66
2022-08-28T06:31:23.541Z,97056.47
2022-08-28T06:33:54.401Z,97050.56
2022-08-28T06:36:22.364Z,97054.31
2022-08-28T06:38:49.482Z,97055.88
2022-08-28T06:41:18.104Z,97061.41
2022-08-28T06:43:45.572Z,97063.13
2022-08-28T06:46:13.270Z,97055.72
2022-08-28T06:48:49.708Z,97067.00
2022-08-28T06:51:17.719Z,97073.66
2022-08-28T06:53:45.970Z,97076.41
2022-08-28T06:56:25.567Z,97067.09
2022-08-28T06:58:55.428Z,97075.66
2022-08-28T07:01:29.373Z,97070.31
2022-08-28T07:04:02.282Z,97075.63
2022-08-28T07:06:33.698Z,97078.56
2022-08-28T07:09:01.106Z,97081.41
2022-08-28T07:11:31.535Z,97083.09
2022-08-28T07:13:59.065Z,97081.91
2022-08-28T07:16:30.218Z,97091.47
2022-08-28T07:18:58.447Z,97086.25
2022-08-28T07:21:26.231Z,97094.41
2022-08-28T07:23:53.930Z,97087.16
2022-08-28T07:26:25.668Z,97089.94
2022-08-28T07:28:53.671Z,97097.22
2022-08-28T07:31:41.319Z,97091.91
2022-08-28T07:34:09.799Z,97099.19
2022-08-28T07:36:38.773Z,97100.59
2022-08-28T07:39:08.157Z,97097.47
2022-08-28T07:41:39.470Z,97094.41
2022-08-28T07:44:26.772Z,97103.69
2022-08-28T07:46:59.500Z,97103.44
2022-08-28T07:49:27.622Z,97098.25
2022-08-28T07:51:54.791Z,97101.03
2022-08-28T07:54:23.146Z,97108.56
2022-08-28T07:56:50.569Z,97104.47
2022-08-28T07:59:19.330Z,97105.88
2022-08-28T08:01:48.041Z,97110.53
2022-08-28T08:04:16.262Z,97116.63
2022-08-28T08:06:44.463Z,97114.19
2022-08-28T08:09:14.687Z,97115.72
2022-08-28T08:11:41.361Z,97116.31
2022-08-28T08:14:08.311Z,97114.56
2022-08-28T08:16:38.911Z,97112.53
2022-08-28T08:19:06.826Z,97114.72
2022-08-28T08:21:33.787Z,97125.53
2022-08-28T08:24:00.990Z,97127.88
2022-08-28T08:26:28.452Z,97128.13
2022-08-28T08:28:55.660Z,97126.31
2022-08-28T08:31:28.432Z,97121.06
2022-08-28T08:33:57.738Z,97123.38
2022-08-28T08:36:26.866Z,97127.03
2022-08-28T08:38:59.459Z,97120.56
2022-08-28T08:41:48.512Z,97130.22
2022-08-28T08:44:33.846Z,97135.75
2022-08-28T08:47:15.230Z,97139.94
2022-08-28T08:49:48.308Z,97141.56
2022-08-28T08:52:41.671Z,97130.38
2022-08-28T08:55:32.127Z,97138.63
2022-08-28T08:58:06.168Z,97133.38
2022-08-28T09:00:38.326Z,97144.34
2022-08-28T09:03:09.947Z,97137.75
2022-08-28T09:05:43.084Z,97138.78
2022-08-28T09:08:20.555Z,97130.88
2022-08-28T09:10:54.654Z,97143.81
2022-08-28T09:13:29.152Z,97146.75
2022-08-28T09:15:56.049Z,97144.69
2022-08-28T09:18:28.822Z,97142.16
2022-08-28T09:21:01.974Z,97148.56
2022-08-28T09:23:38.232Z,97142.38
2022-08-28T09:26:14.597Z,97146.66
2022-08-28T09:28:44.627Z,97146.75
2022-08-28T09:31:20.225Z,97147.66
2022-08-28T09:33:51.316Z,97147.16
2022-08-28T09:36:26.398Z,97150.22
2022-08-28T09:39:12.727Z,97144.69
2022-08-28T09:42:23.978Z,97147.50
2022-08-28T09:45:01.650Z,97144.06
2022-08-28T09:47:46.797Z,97140.72
2022-08-28T09:50:29.168Z,97144.38
2022-08-28T09:53:16.601Z,97145.19
2022-08-28T09:56:19.782Z,97148.22
2022-08-28T09:58:51.117Z,97150.66
2022-08-28T10:01:27.272Z,97145.81
2022-08-28T10:04:16.689Z,97145.09
2022-08-28T10:06:53.143Z,97143.00
2022-08-28T10:09:32.810Z,97136.94
2022-08-28T10:12:37.293Z,97142.81
2022-08-28T10:15:13.689Z,97145.03
2022-08-28T10:17:57.487Z,97141.00
2022-08-28T10:20:55.002Z,97134.78
2022-08-28T10:23:21.681Z,97134.03
2022-08-28T10:25:57.554Z,97144.50
2022-08-28T10:29:02.681Z,97142.41
2022-08-28T10:32:08.549Z,97134.88
2022-08-28T10:34:50.407Z,97140.03
2022-08-28T10:37:48.405Z,97136.75
2022-08-28T10:40:28.558Z,97138.66
2022-08-28T10:43:14.921Z,97140.13
2022-08-28T10:45:42.242Z,97142.97
2022-08-28T10:48:49.812Z,97137.44
2022-08-28T10:51:36.320Z,97131.88
2022-08-28T10:54:20.385Z,97139.66
2022-08-28T10:56:56.003Z,97140.47
2022-08-28T10:59:27.522Z,97134.94
2022-08-28T11:01:54.289Z,97139.91
2022-08-28T11:04:25.652Z,97135.75
2022-08-28T11:07:02.596Z,97141.56
2022-08-28T11:09:39.768Z,97140.28
2022-08-28T11:12:28.144Z,97147.22
2022-08-28T11:14:55.033Z,97137.50
2022-08-28T11:17:25.317Z,97136.22
2022-08-28T11:20:03.837Z,97146.06
2022-08-28T11:22:35.131Z,97140.44
2022-08-28T11:25:55.292Z,97139.81
2022-08-28T11:28:25.556Z,97133.50
2022-08-28T11:31:28.715Z,97132.81
2022-08-28T11:33:59.052Z,97132.81
2022-08-28T11:36:28.166Z,97134.28
2022-08-28T11:38:56.364Z,97131.53
2022-08-28T11:41:35.275Z,97135.00
2022-08-28T11:44:13.893Z,97132.22
2022-08-28T11:46:43.358Z,97131.53
2022-08-28T11:49:39.982Z,97137.84
2022-08-28T11:52:44.810Z,97136.50
2022-08-28T11:55:25.631Z,97132.94
2022-08-28T11:58:21.274Z,97132.28
2022-08-28T12:00:47.950Z,97135.13
2022-08-28T12:03:24.234Z,97133.06
2022-08-28T12:05:54.943Z,97128.81
2022-08-28T12:08:59.045Z,97132.47
2022-08-28T12:12:07.136Z,97138.88
2022-08-28T12:14:36.941Z,97116.44
2022-08-28T12:17:03.799Z,97132.63
2022-08-28T12:19:40.230Z,97126.28
2022-08-28T12:22:12.018Z,97126.38
2022-08-28T12:24:51.079Z,97123.63
2022-08-28T12:27:18.049Z,97127.09
2022-08-28T12:29:56.591Z,97120.09
2022-08-28T12:32:36.371Z,97124.34
2022-08-28T12:35:03.153Z,97118.69
2022-08-28T12:37:52.746Z,97122.09
2022-08-28T12:40:25.995Z,97118.56
2022-08-28T12:42:59.041Z,97122.81
2022-08-28T12:45:44.998Z,97117.25
2022-08-28T12:48:22.382Z,97118.69
2022-08-28T12:50:57.610Z,97129.97
2022-08-28T12:53:25.545Z,97123.69
2022-08-28T12:55:53.637Z,97125.03
2022-08-28T12:58:35.498Z,97125.00
2022-08-28T13:01:23.023Z,97129.16
2022-08-28T13:03:50.822Z,97123.59
2022-08-28T13:06:37.312Z,97124.31
2022-08-28T13:09:14.579Z,97115.91
2022-08-28T13:11:46.813Z,97111.72
2022-08-28T13:14:13.785Z,97108.91
2022-08-28T13:16:46.616Z,97111.03
2022-08-28T13:19:33.445Z,97104.72
2022-08-28T13:22:08.393Z,97108.97
2022-08-28T13:24:35.287Z,97103.34
2022-08-28T13:27:14.293Z,97109.69
2022-08-28T13:30:05.094Z,97106.91
2022-08-28T13:32:34.078Z,97098.50
2022-08-28T13:35:21.947Z,97102.00
2022-08-28T13:37:53.674Z,97099.19
2022-08-28T13:40:55.823Z,97093.56
2022-08-28T13:43:12.873Z,97091.47
2022-08-28T13:45:42.816Z,97090.09
2022-08-28T13:48:21.310Z,97088.69
2022-08-28T13:50:50.789Z,97091.50
2022-08-28T13:53:19.730Z,97090.06
2022-08-28T13:55:49.876Z,97084.47
2022-08-28T13:58:17.238Z,97090.09
2022-08-28T14:00:46.845Z,97081.66
2022-08-28T14:03:32.339Z,97097.81
2022-08-28T14:05:59.372Z,97090.78
2022-08-28T14:08:26.034Z,97091.47
2022-08-28T14:10:52.821Z,97085.16
2022-08-28T14:13:20.235Z,97080.25
2022-08-28T14:15:47.549Z,97083.75
2022-08-28T14:18:14.377Z,97078.84
2022-08-28T14:20:41.265Z,97076.03
2022-08-28T14:23:09.850Z,97073.22
2022-08-28T14:25:46.288Z,97078.81
2022-08-28T14:28:14.405Z,97088.00
2022-08-28T14:30:46.303Z,97080.25
2022-08-28T14:33:15.347Z,97081.63
2022-08-28T14:35:42.714Z,97076.00
2022-08-28T14:38:10.002Z,97084.41
2022-08-28T14:40:41.889Z,97084.41
2022-08-28T14:43:10.383Z,97080.16
2022-08-28T14:45:48.006Z,97074.50
2022-08-28T14:48:16.818Z,97069.59
2022-08-28T14:50:45.823Z,97068.16
2022-08-28T14:53:13.890Z,97079.38
2022-08-28T14:55:46.435Z,97065.97
2022-08-28T14:58:13.959Z,97068.09
2022-08-28T15:00:46.732Z,97067.44
2022-08-28T15:03:14.272Z,97065.31
2022-08-28T15:05:41.478Z,97065.97
2022-08-28T15:08:10.098Z,97065.97
2022-08-28T15:10:41.019Z,97059.59
2022-08-28T15:13:10.240Z,97067.25
2022-08-28T15:15:39.521Z,97063.00
2022-08-28T15:18:07.539Z,97054.47
2022-08-28T15:20:43.267Z,97063.53
2022-08-28T15:23:10.269Z,97074.75
2022-08-28T15:25:37.495Z,97068.28
2022-08-28T15:28:04.712Z,97060.50
2022-08-28T15:30:31.553Z,97060.25
2022-08-28T15:32:58.684Z,97066.09
2022-08-28T15:35:25.572Z,97074.19
2022-08-28T15:37:53.495Z,97069.97
2022-08-28T15:40:39.812Z,97057.06
2022-08-28T15:43:06.727Z,97062.44
2022-08-28T15:45:37.521Z,97054.00
2022-08-28T15:48:04.486Z,97040.34
2022-08-28T15:50:31.582Z,97041.94
2022-08-28T15:52:58.856Z,97035.41
2022-08-28T15:55:27.353Z,97038.28
2022-08-28T15:57:55.143Z,97043.94
2022-08-28T16:00:22.546Z,97031.13
2022-08-28T16:02:49.306Z,97039.00
2022-08-28T16:05:16.403Z,97041.50
2022-08-28T16:07:43.278Z,97041.78
2022-08-28T16:10:13.374Z,97033.81
2022-08-28T16:12:40.980Z,97030.03
2022-08-28T16:15:08.865Z,97031.34
2022-08-28T16:17:35.984Z,97029.22
2022-08-28T16:20:06.643Z,97034.09
2022-08-28T16:22:39.613Z,97029.72
2022-08-28T16:25:07.361Z,97032.03
2022-08-28T16:27:36.758Z,97022.75
2022-08-28T16:30:04.926Z,97029.38
2022-08-28T16:32:31.774Z,97020.56
2022-08-28T16:34:58.506Z,97022.69
2022-08-28T16:37:26.326Z,97019.81
2022-08-28T16:40:08.909Z,97020.25
2022-08-28T16:42:36.055Z,97011.75
2022-08-28T16:45:04.303Z,97015.84
2022-08-28T16:47:33.025Z,97014.97
2022-08-28T16:50:07.507Z,97006.84
2022-08-28T16:52:35.866Z,97010.88
2022-08-28T16:55:03.398Z,97009.81
2022-08-28T16:57:30.358Z,96998.09
2022-08-28T16:59:57.582Z,96995.56
2022-08-28T17:02:25.273Z,97005.19
2022-08-28T17:04:54.748Z,97005.22
2022-08-28T17:07:21.554Z,97009.63
2022-08-28T17:09:48.272Z,96998.06
2022-08-28T17:12:15.421Z,96998.44
2022-08-28T17:14:42.690Z,97008.09
2022-08-28T17:17:09.463Z,97007.44
2022-08-28T17:19:38.175Z,97013.56
2022-08-28T17:22:24.297Z,97018.91
2022-08-28T17:24:59.022Z,97026.19
2022-08-28T17:27:26.474Z,97025.97
2022-08-28T17:29:53.475Z,97028.53
2022-08-28T17:32:20.642Z,97029.72
2022-08-28T17:34:47.742Z,97029.84
2022-08-28T17:37:15.258Z,97034.00
2022-08-28T17:39:42.279Z,97037.97
2022-08-28T17:42:09.127Z,97039.66
2022-08-28T17:44:36.458Z,97037.84
2022-08-28T17:47:03.325Z,97030.38
2022-08-28T17:49:30.428Z,97040.50
2022-08-28T17:51:57.359Z,97039.31
2022-08-28T17:54:24.512Z,97047.84
2022-08-28T17:56:55.369Z,97050.72
2022-08-28T17:59:23.598Z,97050.75
2022-08-28T18:01:50.610Z,97057.72
2022-08-28T18:04:23.852Z,97056.22
2022-08-28T18:06:54.215Z,97070.09
2022-08-28T18:09:21.376Z,97060.91
2022-08-28T18:11:48.107Z,97063.50
2022-08-28T18:14:14.858Z,97062.59
2022-08-28T18:16:41.607Z,97072.16
2022-08-28T18:19:09.993Z,97066.31
2022-08-28T18:21:39.031Z,97072.34
2022-08-28T18:24:06.891Z,97077.72
2022-08-28T18:26:33.771Z,97080.91
2022-08-28T18:29:00.786Z,97091.88
2022-08-28T18:31:27.603Z,97091.66
2022-08-28T18:33:54.811Z,97091.31
2022-08-28T18:36:23.203Z,97107.97
2022-08-28T18:38:50.343Z,97113.94
2022-08-28T18:41:17.266Z,97112.19
2022-08-28T18:43:44.010Z,97109.91
2022-08-28T18:46:11.600Z,97122.97
2022-08-28T18:48:38.402Z,97125.63
2022-08-28T18:51:07.709Z,97126.03
2022-08-28T18:53:34.638Z,97134.22
2022-08-28T18:56:01.850Z,97130.03
2022-08-28T18:58:31.504Z,97133.41
2022-08-28T19:01:00.002Z,97127.72
2022-08-28T19:03:27.180Z,97135.88
2022-08-28T19:05:55.014Z,97137.03
2022-08-28T19:08:23.134Z,97143.16
2022-08-28T19:10:50.045Z,97136.03
2022-08-28T19:13:16.766Z,97135.81
2022-08-28T19:15:50.073Z,97143.25
2022-08-28T19:18:17.046Z,97147.16
2022-08-28T19:20:43.852Z,97149.66
2022-08-28T19:23:13.201Z,97149.50
2022-08-28T19:25:43.857Z,97152.88
2022-08-28T19:28:10.568Z,97154.81
2022-08-28T19:30:41.160Z,97154.63
2022-08-28T19:33:08.026Z,97153.50
2022-08-28T19:35:34.845Z,97152.50
2022-08-28T19:38:01.946Z,97151.66
2022-08-28T19:40:29.184Z,97144.56
2022-08-28T19:42:56.141Z,97147.88
2022-08-28T19:45:23.344Z,97153.19
2022-08-28T19:47:50.178Z,97155.06
2022-08-28T19:50:17.378Z,97154.94
2022-08-28T19:52:45.001Z,97156.22
2022-08-28T19:55:21.496Z,97155.19
2022-08-28T19:57:49.335Z,97159.75
2022-08-28T20:00:22.277Z,97161.75
2022-08-28T20:02:52.126Z,97164.97
2022-08-28T20:05:19.875Z,97173.53
2022-08-28T20:07:47.038Z,97170.81
2022-08-28T20:10:14.178Z,97177.63
2022-08-28T20:12:48.397Z,97176.72
2022-08-28T20:15:18.190Z,97179.41
2022-08-28T20:17:49.564Z,97189.69
2022-08-28T20:20:21.481Z,97185.59
2022-08-28T20:22:48.891Z,97182.78
2022-08-28T20:25:21.482Z,97191.03
2022-08-28T20:27:48.253Z,97192.41
2022-08-28T20:30:15.154Z,97187.31
2022-08-28T20:32:41.859Z,97188.53
2022-08-28T20:35:11.089Z,97186.78
2022-08-28T20:37:45.440Z,97184.69
2022-08-28T20:40:18.132Z,97188.09
2022-08-28T20:42:45.342Z,97192.88
2022-08-28T20:45:13.358Z,97189.84
2022-08-28T20:47:40.101Z,97189.47
2022-08-28T20:50:07.368Z,97188.56
2022-08-28T20:52:34.341Z,97198.88
2022-08-28T20:55:01.131Z,97191.72
2022-08-28T20:57:28.001Z,97193.06
2022-08-28T20:59:55.017Z,97193.84
2022-08-28T21:02:27.084Z,97191.63
2022-08-28T21:04:55.983Z,97186.72
2022-08-28T21:07:24.988Z,97190.81
2022-08-28T21:10:05.087Z,97197.63
2022-08-28T21:12:39.458Z,97198.91
2022-08-28T21:15:09.832Z,97200.34
2022-08-28T21:17:37.923Z,97202.91
2022-08-28T21:20:09.295Z,97204.03
2022-08-28T21:22:38.052Z,97190.97
2022-08-28T21:25:07.577Z,97190.88
2022-08-28T21:27:35.580Z,97197.53
2022-08-28T21:30:05.173Z,97192.59
2022-08-28T21:32:34.485Z,97199.50
2022-08-28T21:35:03.148Z,97200.28
2022-08-28T21:37:31.076Z,97203.69
2022-08-28T21:39:59.795Z,97202.94
2022-08-28T21:42:27.835Z,97209.75
2022-08-28T21:44:55.109Z,97199.81
2022-08-28T21:47:23.422Z,97204.78
2022-08-28T21:49:52.789Z,97206.63
2022-08-28T21:52:21.463Z,97207.34
2022-08-28T21:54:49.627Z,97204.63
2022-08-28T21:57:17.851Z,97205.50
2022-08-28T21:59:45.094Z,97215.94
2022-08-28T22:02:12.313Z,97212.41
2022-08-28T22:04:39.603Z,97216.38
2022-08-28T22:07:07.274Z,97212.97
2022-08-28T22:09:34.460Z,97210.13
2022-08-28T22:12:01.667Z,97216.78
2022-08-28T22:14:29.792Z,97217.91
2022-08-28T22:16:56.985Z,97211.72
2022-08-28T22:19:24.207Z,97217.28
2022-08-28T22:22:09.723Z,97206.75
2022-08-28T22:24:37.873Z,97218.56
2022-08-28T22:27:06.001Z,97206.75
2022-08-28T22:29:36.709Z,97215.78
2022-08-28T22:32:08.415Z,97212.31
2022-08-28T22:34:39.503Z,97208.19
2022-08-28T22:37:07.955Z,97208.81
2022-08-28T22:39:35.277Z,97205.91
2022-08-28T22:42:03.854Z,97207.88
2022-08-28T22:44:31.364Z,97205.09
2022-08-28T22:46:58.809Z,97212.16
2022-08-28T22:49:26.247Z,97206.53
2022-08-28T22:51:53.383Z,97208.59
2022-08-28T22:54:20.783Z,97211.34
2022-08-28T22:56:47.996Z,97212.06
2022-08-28T22:59:14.794Z,97212.00
2022-08-28T23:01:42.674Z,97206.31
2022-08-28T23:04:11.139Z,97203.31
2022-08-28T23:06:40.423Z,97209.31
2022-08-28T23:09:08.894Z,97203.13
2022-08-28T23:11:37.090Z,97207.25
2022-08-28T23:14:05.667Z,97205.84
2022-08-28T23:16:35.360Z,97200.06
2022-08-28T23:19:09.796Z,97193.59
2022-08-28T23:21:43.481Z,97192.16
2022-08-28T23:24:12.862Z,97199.13
2022-08-28T23:26:40.300Z,97199.13
2022-08-28T23:29:07.737Z,97203.81
2022-08-28T23:31:35.006Z,97202.31
2022-08-28T23:34:02.344Z,97195.19
2022-08-28T23:36:29.509Z,97191.63
2022-08-28T23:38:57.423Z,97198.44
2022-08-28T23:41:24.982Z,97189.25
2022-08-28T23:43:52.594Z,97187.19
2022-08-28T23:46:20.306Z,97193.31
2022-08-28T23:48:49.765Z,97191.78
2022-08-28T23:51:17.794Z,97193.63
2022-08-28T23:53:45.751Z,97192.97
2022-08-28T23:56:14.704Z,97192.81
2022-08-28T23:58:43.197Z,97191.22
